Republican City, Nebraska
Current Conditions -  °F | °C
As of 10:15 PM on Monday 22 Dec 2014 (Local Time) from KHDE Reporting Station
Broken Clouds Broken Clouds  
Wind Chill: 25°   Ceiling: 9000
Heat Index: 36°   Visibility: 10mi
Dew Point: 30°   Wind: 20mph
Humidity: 81%   Direction: 310°NW
Pressure: 29.57"   Gusts: 26mph
Location:  40.1°N, 99.22°W
Report Text: KHDE 230415Z AUTO 31017G23KT 10SM SCT026 SCT049 BKN090 02/M01 A2957 RMK AO2 T00201010
Loading
Personal Weather Stations






























Interactive Weather Map New forecast layout! Learn more

10-Day Weather Forecast

Advertisements
Track Severe Weather on mobile